createdAt,value
2022-09-07T08:24:34.744Z,100578.00
2022-09-07T08:26:37.529Z,100578.00
2022-09-07T08:28:42.436Z,100574.03
2022-09-07T08:30:44.778Z,100576.91
2022-09-07T08:32:47.350Z,100569.78
2022-09-07T08:34:49.638Z,100571.47
2022-09-07T08:36:51.890Z,100577.69
2022-09-07T08:38:54.419Z,100567.50
2022-09-07T08:40:57.805Z,100564.66
2022-09-07T08:43:08.920Z,100564.16
2022-09-07T08:45:18.643Z,100556.09
2022-09-07T08:47:39.682Z,100560.56
2022-09-07T08:50:17.468Z,100570.25
2022-09-07T08:52:33.012Z,100553.84
2022-09-07T08:54:37.063Z,100558.28
2022-09-07T08:57:20.462Z,100554.53
2022-09-07T08:59:35.839Z,100545.50
2022-09-07T09:01:42.289Z,100545.91
2022-09-07T09:04:17.322Z,100551.25
2022-09-07T09:06:33.665Z,100550.59
2022-09-07T09:08:49.997Z,100547.81
2022-09-07T09:11:10.668Z,100543.50
2022-09-07T09:13:28.907Z,100536.09
2022-09-07T09:15:45.477Z,100537.88
2022-09-07T09:17:50.721Z,100539.47
2022-09-07T09:20:05.657Z,100540.59
2022-09-07T09:22:07.855Z,100545.06
2022-09-07T09:24:19.340Z,100541.75
2022-09-07T09:26:27.020Z,100547.97
2022-09-07T09:28:31.879Z,100547.59
2022-09-07T09:30:34.813Z,100539.25
2022-09-07T09:32:41.587Z,100536.97
2022-09-07T09:35:23.289Z,100540.75
2022-09-07T09:37:34.699Z,100532.84
2022-09-07T09:39:37.929Z,100526.06
2022-09-07T09:41:40.444Z,100526.66
2022-09-07T09:43:51.547Z,100527.69
2022-09-07T09:46:12.654Z,100526.81
2022-09-07T09:48:22.566Z,100530.97
2022-09-07T09:52:55.393Z,100516.19
2022-09-07T09:55:17.241Z,100518.41
2022-09-07T10:00:27.916Z,100513.50
2022-09-07T10:04:55.739Z,100509.78
2022-09-07T10:07:16.582Z,100506.50
2022-09-07T10:09:29.552Z,100505.31
2022-09-07T10:12:09.817Z,100500.72
2022-09-07T10:14:25.199Z,100508.75
2022-09-07T10:16:40.484Z,100499.88
2022-09-07T10:18:57.606Z,100499.00
2022-09-07T10:21:35.568Z,100487.94
2022-09-07T10:23:38.460Z,100494.00
2022-09-07T10:25:45.457Z,100491.28
2022-09-07T10:27:47.894Z,100493.03
2022-09-07T10:29:50.456Z,100489.69
2022-09-07T10:32:05.974Z,100493.41
2022-09-07T10:34:29.477Z,100489.59
2022-09-07T10:36:47.394Z,100491.66
2022-09-07T10:39:25.657Z,100491.75
2022-09-07T10:41:46.202Z,100491.03
2022-09-07T10:43:50.749Z,100483.63
2022-09-07T10:45:59.425Z,100477.66
2022-09-07T10:48:59.820Z,100484.13
2022-09-07T10:51:14.509Z,100471.41
2022-09-07T10:53:44.909Z,100478.09
2022-09-07T10:56:06.378Z,100480.56
2022-09-07T10:58:20.777Z,100473.09
2022-09-07T11:00:24.488Z,100471.44
2022-09-07T11:03:27.138Z,100466.47
2022-09-07T11:05:38.787Z,100468.19
2022-09-07T11:07:59.809Z,100467.13
2022-09-07T11:10:17.019Z,100466.09
2022-09-07T11:12:27.963Z,100461.63
2022-09-07T11:14:38.336Z,100458.88
2022-09-07T11:16:51.915Z,100458.19
2022-09-07T11:24:12.197Z,100445.19
2022-09-07T11:26:19.921Z,100443.81
2022-09-07T11:28:38.428Z,100436.34
2022-09-07T11:30:46.911Z,100434.69
2022-09-07T11:32:54.992Z,100431.62
2022-09-07T11:35:00.003Z,100439.53
2022-09-07T11:37:46.588Z,100430.03
2022-09-07T11:39:58.883Z,100426.91
2022-09-07T11:44:49.788Z,100435.12
2022-09-07T11:46:55.855Z,100426.81
2022-09-07T11:48:58.769Z,100423.37
2022-09-07T11:51:08.160Z,100421.31
2022-09-07T11:53:26.954Z,100426.03
2022-09-07T11:55:35.536Z,100417.97
2022-09-07T11:58:19.560Z,100418.62
2022-09-07T12:00:27.982Z,100424.47
2022-09-07T12:03:08.066Z,100420.44
2022-09-07T12:05:30.550Z,100419.41
2022-09-07T12:07:39.177Z,100412.59
2022-09-07T12:09:44.327Z,100411.44
2022-09-07T12:12:19.369Z,100414.84
2022-09-07T12:14:34.134Z,100409.28
2022-09-07T12:16:55.251Z,100404.69
2022-09-07T12:19:00.359Z,100407.88
2022-09-07T12:21:03.411Z,100397.94
2022-09-07T12:23:27.034Z,100395.91
2022-09-07T12:25:30.215Z,100396.41
2022-09-07T12:27:32.742Z,100403.13
2022-09-07T12:29:35.174Z,100393.06
2022-09-07T12:31:57.816Z,100396.22
2022-09-07T12:34:29.758Z,100394.97
2022-09-07T12:36:32.189Z,100397.94
2022-09-07T12:38:37.089Z,100401.34
2022-09-07T12:40:46.038Z,100398.59
2022-09-07T12:42:48.389Z,100406.06
2022-09-07T12:45:28.833Z,100388.50
2022-09-07T12:47:31.335Z,100393.37
2022-09-07T12:49:36.556Z,100387.88
2022-09-07T12:54:27.263Z,100383.84
2022-09-07T12:59:42.806Z,100371.59
2022-09-07T13:02:05.133Z,100369.56
2022-09-07T13:04:29.278Z,100368.25
2022-09-07T13:09:31.125Z,100375.31
2022-09-07T13:11:38.414Z,100364.97
2022-09-07T13:16:05.922Z,100364.66
2022-09-07T13:18:36.644Z,100359.72
2022-09-07T13:20:41.491Z,100370.28
2022-09-07T13:22:44.717Z,100372.13
2022-09-07T13:24:53.282Z,100370.28
2022-09-07T13:27:43.513Z,100366.78
2022-09-07T13:29:55.298Z,100365.22
2022-09-07T13:32:13.357Z,100365.41
2022-09-07T13:34:32.572Z,100365.81
2022-09-07T13:36:39.481Z,100370.13
2022-09-07T13:38:43.538Z,100366.63
2022-09-07T13:40:47.950Z,100361.53
2022-09-07T13:42:52.344Z,100359.91
2022-09-07T13:45:00.785Z,100360.56
2022-09-07T13:47:14.155Z,100349.69
2022-09-07T13:49:58.786Z,100356.56
2022-09-07T13:52:16.512Z,100350.94
2022-09-07T13:54:48.041Z,100346.69
2022-09-07T13:57:09.576Z,100340.81
2022-09-07T13:59:23.845Z,100338.56
2022-09-07T14:01:28.726Z,100340.00
2022-09-07T14:03:39.351Z,100342.28
2022-09-07T14:05:41.483Z,100334.38
2022-09-07T14:07:47.518Z,100333.34
2022-09-07T14:09:51.183Z,100339.25
2022-09-07T14:11:55.713Z,100335.19
2022-09-07T14:14:13.899Z,100332.00
2022-09-07T14:16:16.477Z,100323.56
2022-09-07T14:18:30.410Z,100326.53
2022-09-07T14:20:40.650Z,100325.97
2022-09-07T14:22:44.225Z,100329.44
2022-09-07T14:24:57.970Z,100333.84
2022-09-07T14:27:00.731Z,100328.69
2022-09-07T14:29:03.425Z,100324.66
2022-09-07T14:31:10.147Z,100330.47
2022-09-07T14:33:17.379Z,100328.41
2022-09-07T14:35:31.957Z,100315.75
2022-09-07T14:37:34.401Z,100324.47
2022-09-07T14:39:41.615Z,100331.38
2022-09-07T14:41:45.287Z,100321.87
2022-09-07T14:43:56.249Z,100319.66
2022-09-07T14:46:19.782Z,100320.88
2022-09-07T14:48:31.473Z,100321.50
2022-09-07T14:50:41.427Z,100326.03
2022-09-07T14:53:34.101Z,100321.91
2022-09-07T14:55:28.361Z,100322.50
2022-09-07T14:57:32.378Z,100325.81
2022-09-07T14:59:48.246Z,100324.19
2022-09-07T15:01:51.001Z,100325.84
2022-09-07T15:04:02.519Z,100320.25
2022-09-07T15:06:06.488Z,100316.69
2022-09-07T15:08:19.899Z,100323.53
2022-09-07T15:10:23.210Z,100322.53
2022-09-07T15:12:38.159Z,100312.59
2022-09-07T15:14:42.294Z,100317.56
2022-09-07T15:16:45.378Z,100322.31
2022-09-07T15:19:05.732Z,100316.25
2022-09-07T15:21:09.038Z,100315.78
2022-09-07T15:23:16.942Z,100318.28
2022-09-07T15:25:19.288Z,100315.16
2022-09-07T15:27:28.844Z,100313.75
2022-09-07T15:29:32.143Z,100310.84
2022-09-07T15:31:42.528Z,100315.41
2022-09-07T15:33:47.873Z,100310.88
2022-09-07T15:35:52.113Z,100308.66
2022-09-07T15:38:03.263Z,100315.66
2022-09-07T15:40:20.717Z,100312.34
2022-09-07T15:44:46.007Z,100317.91
2022-09-07T15:49:12.549Z,100312.47
2022-09-07T15:56:03.135Z,100321.59
2022-09-07T15:58:11.875Z,100318.25
2022-09-07T16:00:15.126Z,100325.16
2022-09-07T16:04:40.090Z,100326.78
2022-09-07T16:06:42.585Z,100329.81
2022-09-07T16:08:45.304Z,100328.31
2022-09-07T16:10:55.852Z,100327.34
2022-09-07T16:13:01.513Z,100316.44
2022-09-07T16:15:05.887Z,100327.56
2022-09-07T16:19:30.895Z,100323.81
2022-09-07T16:21:41.010Z,100320.53
2022-09-07T16:23:48.847Z,100316.34
2022-09-07T16:25:59.972Z,100317.78
2022-09-07T16:28:04.292Z,100315.66
2022-09-07T16:30:07.119Z,100315.72
2022-09-07T16:34:32.893Z,100307.38
2022-09-07T16:36:35.202Z,100318.41
2022-09-07T16:38:55.391Z,100313.19
2022-09-07T16:41:01.126Z,100316.06
2022-09-07T16:43:03.393Z,100305.72
2022-09-07T16:47:28.765Z,100299.25
2022-09-07T16:49:31.253Z,100294.75
2022-09-07T16:51:34.903Z,100297.00
2022-09-07T16:53:38.202Z,100292.03
2022-09-07T16:55:41.925Z,100295.72
2022-09-07T17:00:07.352Z,100290.28
2022-09-07T17:02:16.093Z,100288.50
2022-09-07T17:04:18.809Z,100281.34
2022-09-07T17:06:24.832Z,100283.81
2022-09-07T17:08:27.704Z,100288.19
2022-09-07T17:10:30.067Z,100281.09
2022-09-07T17:12:32.614Z,100284.53
2022-09-07T17:14:34.901Z,100282.19
2022-09-07T17:16:39.826Z,100281.31
2022-09-07T17:21:06.964Z,100279.94
2022-09-07T17:23:09.429Z,100290.50
2022-09-07T17:25:14.117Z,100288.78
2022-09-07T17:27:16.568Z,100288.66
2022-09-07T17:29:19.056Z,100296.34
2022-09-07T17:33:53.045Z,100298.44
2022-09-07T17:35:55.475Z,100294.84
2022-09-07T17:37:58.327Z,100298.22
2022-09-07T17:40:01.273Z,100305.19
2022-09-07T17:42:07.559Z,100302.78
2022-09-07T17:44:10.266Z,100304.31
2022-09-07T17:46:15.840Z,100310.97
2022-09-07T17:48:18.188Z,100307.53
2022-09-07T17:50:20.841Z,100311.44
2022-09-07T17:52:23.347Z,100315.56
2022-09-07T17:54:25.962Z,100316.41
2022-09-07T17:56:29.296Z,100316.19
2022-09-07T17:58:31.799Z,100325.81
2022-09-07T18:00:34.775Z,100330.03
2022-09-07T18:02:37.724Z,100328.59
2022-09-07T18:04:40.480Z,100337.59
2022-09-07T18:06:43.168Z,100335.72
2022-09-07T18:08:52.856Z,100321.13
2022-09-07T18:13:25.541Z,100330.53
2022-09-07T18:15:38.787Z,100338.91
2022-09-07T18:17:41.522Z,100341.66
2022-09-07T18:19:44.216Z,100346.13
2022-09-07T18:21:48.258Z,100347.78
2022-09-07T18:23:56.539Z,100348.78
2022-09-07T18:25:59.306Z,100354.72
2022-09-07T18:30:26.266Z,100353.50
2022-09-07T18:32:28.933Z,100344.50
2022-09-07T18:34:32.224Z,100341.22
2022-09-07T18:36:36.092Z,100338.06
2022-09-07T18:38:38.820Z,100341.34
2022-09-07T18:40:41.919Z,100339.25
2022-09-07T18:42:45.084Z,100337.41
2022-09-07T18:47:17.466Z,100336.59
2022-09-07T18:49:24.988Z,100328.19
2022-09-07T18:51:28.107Z,100332.44
2022-09-07T18:53:32.315Z,100332.69
2022-09-07T18:55:35.099Z,100329.78
2022-09-07T18:57:38.369Z,100327.28
2022-09-07T18:59:41.382Z,100327.66
2022-09-07T19:01:44.303Z,100317.00
2022-09-07T19:03:54.145Z,100326.34
2022-09-07T19:05:59.226Z,100330.59
2022-09-07T19:08:03.781Z,100321.59
2022-09-07T19:10:08.395Z,100319.91
2022-09-07T19:12:11.415Z,100317.53
2022-09-07T19:14:14.254Z,100315.78
2022-09-07T19:16:19.490Z,100310.47
2022-09-07T19:18:22.464Z,100316.41
2022-09-07T19:20:26.386Z,100318.09
2022-09-07T19:22:29.001Z,100317.88
2022-09-07T19:24:32.218Z,100318.72
2022-09-07T19:26:37.945Z,100319.78
2022-09-07T19:28:40.601Z,100325.44
2022-09-07T19:30:43.557Z,100320.72
2022-09-07T19:32:46.206Z,100316.38
2022-09-07T19:34:54.723Z,100322.44
2022-09-07T19:36:57.698Z,100323.00
2022-09-07T19:39:01.086Z,100320.12
2022-09-07T19:41:04.212Z,100317.44
2022-09-07T19:43:08.690Z,100319.66
2022-09-07T19:45:11.758Z,100316.22
2022-09-07T19:47:14.401Z,100319.84
2022-09-07T19:49:17.499Z,100312.72
2022-09-07T19:51:20.290Z,100318.47
2022-09-07T19:53:23.972Z,100318.16
2022-09-07T19:55:27.956Z,100320.84
2022-09-07T19:57:30.607Z,100317.47
2022-09-07T19:59:33.400Z,100314.75
2022-09-07T20:01:38.106Z,100314.19
2022-09-07T20:03:42.422Z,100319.81
2022-09-07T20:05:45.096Z,100312.91
2022-09-07T20:07:47.722Z,100309.75
2022-09-07T20:09:51.785Z,100311.31
2022-09-07T20:11:57.211Z,100316.38
2022-09-07T20:13:59.789Z,100313.34
2022-09-07T20:16:11.962Z,100315.84
2022-09-07T20:18:15.217Z,100321.06
2022-09-07T20:20:18.107Z,100317.75
2022-09-07T20:22:20.952Z,100316.81
2022-09-07T20:24:23.802Z,100318.28
2022-09-07T20:26:26.409Z,100315.88
2022-09-07T20:28:30.029Z,100315.53
2022-09-07T20:30:33.902Z,100324.44
2022-09-07T20:32:36.400Z,100319.81
2022-09-07T20:34:39.117Z,100316.94
2022-09-07T20:36:41.804Z,100316.66
2022-09-07T20:38:51.203Z,100314.25
2022-09-07T20:40:56.239Z,100318.78
2022-09-07T20:42:58.844Z,100323.12
2022-09-07T20:45:02.251Z,100315.69
2022-09-07T20:47:05.005Z,100325.59
2022-09-07T20:49:07.503Z,100312.09
2022-09-07T20:51:12.514Z,100315.16
2022-09-07T20:53:15.149Z,100314.03
2022-09-07T20:55:17.601Z,100308.44
2022-09-07T20:57:19.877Z,100302.84
2022-09-07T20:59:22.503Z,100304.66
2022-09-07T21:01:25.195Z,100304.94
2022-09-07T21:03:28.926Z,100304.94
2022-09-07T21:05:35.535Z,100303.44
2022-09-07T21:07:38.957Z,100309.78
2022-09-07T21:09:41.262Z,100307.44
2022-09-07T21:11:48.567Z,100301.41
2022-09-07T21:13:59.779Z,100306.59
2022-09-07T21:16:12.356Z,100301.84
2022-09-07T21:18:16.711Z,100303.91
2022-09-07T21:20:19.028Z,100304.94
2022-09-07T21:22:21.469Z,100303.22
2022-09-07T21:24:24.222Z,100301.16
2022-09-07T21:26:28.290Z,100290.44
2022-09-07T21:28:30.849Z,100304.09
2022-09-07T21:30:33.386Z,100305.75
2022-09-07T21:32:35.784Z,100303.00
2022-09-07T21:34:38.069Z,100299.00
2022-09-07T21:36:40.632Z,100301.97
2022-09-07T21:38:42.899Z,100304.28
2022-09-07T21:40:45.177Z,100301.34
2022-09-07T21:42:47.720Z,100309.56
2022-09-07T21:44:49.939Z,100305.88
2022-09-07T21:46:52.353Z,100312.56
2022-09-07T21:48:56.623Z,100310.25
2022-09-07T21:50:58.832Z,100305.50
2022-09-07T21:53:01.612Z,100306.28
2022-09-07T21:55:04.925Z,100306.19
2022-09-07T21:57:07.252Z,100307.59
2022-09-07T21:59:09.625Z,100305.50
